Data for 10/27/2009

Time Sea-Level Adjusted Pressure Absolute Pressure Temperature Relative Humidity Dew Point   
(mb) (inHg) (mb) (inHg) (C) (F) (%) (C) (F)
00:05 1005 29.68 834 24.63 2.9 37.2 89 1.3 34.3
00:10 1005 29.68 834 24.63 2.6 36.7 91 1.2 34.2
00:15 1005 29.68 834 24.63 2.5 36.5 91 1.3 34.3
00:20 1005 29.68 834 24.63 2.4 36.4 92 1.2 34.2
00:25 1005 29.68 834 24.63 2.4 36.4 91 1.1 34.1
00:30 1005 29.68 834 24.63 2.3 36.2 91 1 33.7
00:35 1005 29.68 834 24.63 2.1 35.7 92 0.9 33.5
00:40 1005 29.68 834 24.63 2 35.7 92 0.9 33.6
00:45 1005 29.68 834 24.63 2.1 35.7 92 0.9 33.6
00:50 1005 29.68 834 24.63 2 35.6 92 0.8 33.5
00:55 1005 29.68 834 24.63 1.9 35.5 92 0.7 33.3
01:00 1005 29.68 834 24.63 1.7 35.1 92 0.6 33.1
01:05 1005 29.68 834 24.63 1.5 34.7 93 0.5 32.9
01:10 1005 29.68 834 24.63 1.4 34.4 94 0.5 32.9
01:15 1005 29.68 834 24.63 1.3 34.3 94 0.4 32.7
01:20 1004 29.65 834 24.63 0.9 33.7 95 0.2 32.4
01:25 1004 29.65 834 24.63 0.7 33.3 96 0.1 32.2
01:30 1004 29.65 833 24.6 0.9 33.6 95 0.1 32.3
01:35 1004 29.65 834 24.63 1 33.8 95 0.2 32.4
01:40 1004 29.65 833 24.6 1.2 34.1 94 0.2 32.4
01:45 1004 29.65 833 24.6 1.4 34.5 92 0.3 32.5
01:50 1004 29.65 833 24.6 1.4 34.6 92 0.3 32.5
01:55 1004 29.65 833 24.6 1.4 34.6 92 0.3 32.6
02:00 1004 29.65 833 24.6 1.5 34.6 92 0.3 32.5
02:05 1004 29.65 833 24.6 1.5 34.6 92 0.3 32.5
02:10 1004 29.65 833 24.6 1.5 34.6 92 0.3 32.5
02:15 1004 29.65 834 24.63 1.5 34.6 92 0.3 32.6
02:20 1004 29.65 834 24.63 1.4 34.5 92 0.2 32.3
02:25 1004 29.65 834 24.63 1.4 34.6 89 -0.1 31.8
02:30 1004 29.65 833 24.6 1.7 35 87 -0.3 31.5
02:35 1004 29.65 834 24.63 1.9 35.4 86 -0.2 31.6
02:40 1004 29.65 834 24.63 1.9 35.4 85 -0.4 31.2
02:45 1005 29.68 834 24.63 2 35.6 85 -0.3 31.5
02:50 1005 29.68 834 24.63 2.1 35.8 85 -0.2 31.6
02:55 1005 29.68 834 24.63 2.2 35.9 83 -0.5 31.1
03:00 1005 29.68 834 24.63 2.4 36.3 82 -0.4 31.3
03:05 1005 29.68 834 24.63 2.6 36.6 81 -0.3 31.4
03:10 1005 29.68 834 24.63 2.7 36.8 80 -0.5 31.2
03:15 1005 29.68 834 24.63 2.7 36.9 80 -0.4 31.3
03:20 1005 29.68 834 24.63 2.7 36.8 81 -0.3 31.4
03:25 1005 29.68 834 24.63 2.5 36.6 82 -0.2 31.6
03:30 1005 29.68 834 24.63 2.4 36.4 82 -0.3 31.4
03:35 1005 29.68 834 24.63 2.3 36.2 79 -0.9 30.4
03:40 1005 29.68 834 24.63 2.3 36.2 80 -0.8 30.5
03:45 1005 29.68 834 24.63 2.2 36 80 -0.9 30.5
03:50 1005 29.68 834 24.63 2.2 35.9 81 -0.8 30.5
03:55 1005 29.68 834 24.63 2.1 35.9 80 -0.9 30.4
04:00 1005 29.68 834 24.63 2.1 35.8 79 -1.2 29.9
04:05 1005 29.68 834 24.63 2 35.6 77 -1.6 29.1
04:10 1005 29.68 835 24.66 1.9 35.5 75 -2 28.5
04:15 1005 29.68 835 24.66 1.9 35.4 75 -2.1 28.2
04:20 1006 29.71 835 24.66 1.8 35.2 74 -2.4 27.8
04:25 1006 29.71 835 24.66 1.7 35.1 74 -2.3 27.8
04:30 1006 29.71 835 24.66 1.7 35 69 -3.3 26
04:35 1006 29.71 835 24.66 1.6 34.9 69 -3.5 25.7
04:40 1006 29.71 835 24.66 1.5 34.7 68 -3.7 25.3
04:45 1006 29.71 835 24.66 1.5 34.7 66 -4.2 24.4
04:50 1006 29.71 835 24.66 1.4 34.5 67 -4.2 24.5
04:55 1006 29.71 835 24.66 1.4 34.5 64 -4.8 23.4
05:00 1006 29.71 835 24.66 1.3 34.4 63 -4.9 23.2
05:05 1006 29.71 835 24.66 1.4 34.4 61 -5.4 22.3
05:10 1006 29.71 835 24.66 1.3 34.3 59 -5.8 21.5
05:15 1006 29.71 835 24.66 1.2 34.2 60 -5.7 21.7
05:20 1006 29.71 835 24.66 1.1 34 61 -5.6 21.8
05:25 1006 29.71 835 24.66 1 33.8 61 -5.6 21.8
05:30 1006 29.71 835 24.66 0.9 33.6 64 -5.1 22.8
05:35 1006 29.71 835 24.66 0.7 33.2 64 -5.3 22.4
05:40 1006 29.71 835 24.66 0.6 33 62 -5.9 21.4
05:45 1006 29.71 835 24.66 0.6 33 62 -5.8 21.6
05:50 1006 29.71 835 24.66 0.5 33 62 -5.9 21.4
05:55 1006 29.71 835 24.66 0.6 33.1 61 -6.1 21
06:00 1006 29.71 835 24.66 0.7 33.2 60 -6.2 20.8
06:05 1006 29.71 835 24.66 0.7 33.3 61 -5.9 21.3
06:10 1006 29.71 835 24.66 0.5 33 66 -5 23
06:15 1006 29.71 835 24.66 0.4 32.7 66 -5.3 22.4
06:20 1006 29.71 835 24.66 0.4 32.6 64 -5.6 21.9
06:25 1006 29.71 835 24.66 0.5 32.9 62 -5.9 21.3
06:30 1006 29.71 835 24.66 0.7 33.2 61 -6.1 21
06:35 1006 29.71 835 24.66 0.8 33.4 60 -6.1 21
06:40 1006 29.71 835 24.66 0.8 33.4 60 -6.1 21.1
06:45 1006 29.71 835 24.66 0.7 33.3 64 -5.4 22.3
06:50 1006 29.71 835 24.66 0.4 32.7 62 -6 21.1
06:55 1006 29.71 835 24.66 0.3 32.6 64 -5.7 21.8
07:00 1006 29.71 835 24.66 0.3 32.5 63 -6 21.2
07:05 1006 29.71 835 24.66 0.3 32.6 61 -6.3 20.7
07:10 1006 29.71 835 24.66 0.3 32.6 63 -5.9 21.5
07:15 1006 29.71 835 24.66 0.2 32.4 64 -5.8 21.5
07:20 1006 29.71 835 24.66 0.1 32.2 63 -6.1 21
07:25 1006 29.71 835 24.66 0.1 32.3 64 -5.9 21.4
07:30 1006 29.71 835 24.66 0.1 32.2 63 -6.1 21.1
07:35 1006 29.71 835 24.66 0.1 32.2 63 -6.2 20.9
07:40 1006 29.71 835 24.66 0.3 32.6 63 -6 21.2
07:45 1006 29.71 835 24.66 0.2 32.3 65 -5.6 22
07:50 1006 29.71 836 24.69 0 32 66 -5.7 21.8
07:55 1006 29.71 836 24.69 -0.2 31.7 67 -5.5 22.1
08:00 1006 29.71 836 24.69 -0.3 31.4 67 -5.7 21.7
08:05 1006 29.71 836 24.69 -0.1 31.8 66 -5.7 21.8
08:10 1007 29.74 836 24.69 -0.3 31.5 68 -5.6 22
08:15 1007 29.74 836 24.69 -0.4 31.3 68 -5.5 22.1
08:20 1007 29.74 836 24.69 0.1 32.1 65 -5.7 21.8
08:25 1007 29.74 836 24.69 0.3 32.5 62 -6.1 21
08:30 1007 29.74 836 24.69 0.5 33 60 -6.4 20.5
08:35 1007 29.74 836 24.69 0.8 33.4 61 -6 21.3
08:40 1007 29.74 836 24.69 0.9 33.6 61 -5.8 21.5
08:45 1007 29.74 836 24.69 0.9 33.5 62 -5.7 21.8
08:50 1007 29.74 836 24.69 0.5 32.9 64 -5.5 22.1
08:55 1007 29.74 836 24.69 0.3 32.6 67 -5.2 22.7
09:00 1007 29.74 836 24.69 0.2 32.4 69 -4.9 23.3
09:05 1007 29.74 836 24.69 0.2 32.3 70 -4.6 23.6
09:10 1007 29.74 836 24.69 0.5 32.9 69 -4.6 23.8
09:15 1007 29.74 836 24.69 1.2 34.2 66 -4.4 24.1
09:20 1007 29.74 836 24.69 1.1 34 68 -4.2 24.5
09:25 1007 29.74 836 24.69 0.8 33.4 69 -4.2 24.5
09:30 1007 29.74 836 24.69 0.8 33.4 70 -4.1 24.6
09:35 1007 29.74 836 24.69 0.6 33.1 70 -4.2 24.5
09:40 1007 29.74 836 24.69 0.5 32.9 71 -4.2 24.5
09:45 1007 29.74 836 24.69 0.5 32.8 71 -4.2 24.5
09:50 1007 29.74 836 24.69 0.3 32.6 70 -4.4 24
09:55 1007 29.74 836 24.69 0.2 32.3 67 -5.3 22.5
10:00 1007 29.74 836 24.69 0.4 32.7 59 -6.7 20
10:05 1007 29.74 836 24.69 0.7 33.2 56 -7.2 19
10:10 1007 29.74 836 24.69 0.9 33.6 55 -7.1 19.3
10:15 1007 29.74 836 24.69 1 33.9 55 -7.1 19.2
10:20 1007 29.74 836 24.69 1.2 34.1 54 -7.1 19.3
10:25 1007 29.74 836 24.69 1.3 34.3 52 -7.5 18.4
10:30 1007 29.74 836 24.69 1.3 34.4 52 -7.4 18.6
10:35 1007 29.74 837 24.72 1.3 34.3 56 -6.7 20
10:40 1007 29.74 837 24.72 1.2 34.2 60 -5.7 21.7
10:45 1007 29.74 837 24.72 1.2 34.1 56 -6.8 19.8
10:50 1008 29.77 837 24.72 0.9 33.7 56 -7 19.5
10:55 1008 29.77 837 24.72 1 33.7 55 -7 19.5
11:00 1008 29.77 837 24.72 1.1 34 55 -6.9 19.5
11:05 1008 29.77 837 24.72 1.3 34.3 54 -7 19.5
11:10 1008 29.77 837 24.72 1.4 34.5 54 -6.9 19.6
11:15 1008 29.77 837 24.72 1.3 34.4 55 -6.8 19.7
11:20 1008 29.77 837 24.72 1.4 34.5 53 -7.1 19.2
11:25 1008 29.77 837 24.72 1.6 34.8 52 -7.4 18.7
11:30 1008 29.77 837 24.72 1.7 35 51 -7.3 18.8
11:35 1008 29.77 837 24.72 1.6 34.8 50 -7.6 18.2
11:40 1008 29.77 837 24.72 1.4 34.5 51 -7.7 18.1
11:45 1008 29.77 837 24.72 1.5 34.6 51 -7.6 18.2
11:50 1008 29.77 837 24.72 1.3 34.4 52 -7.5 18.5
11:55 1008 29.77 837 24.72 1.2 34.2 51 -7.7 18.1
12:00 1008 29.77 837 24.72 1.2 34.2 52 -7.5 18.6
12:05 1008 29.77 837 24.72 1.3 34.3 54 -7 19.4
12:10 1008 29.77 837 24.72 1.2 34.2 54 -7.2 19
12:15 1008 29.77 837 24.72 1.1 33.9 54 -7.2 19.1
12:20 1008 29.77 837 24.72 1 33.8 54 -7.2 19
12:25 1008 29.77 837 24.72 1 33.9 53 -7.4 18.7
12:30 1008 29.77 837 24.72 1.1 34 53 -7.3 18.8
12:35 1008 29.77 837 24.72 1.3 34.3 53 -7.3 18.8
12:40 1008 29.77 837 24.72 1.3 34.3 53 -7.2 19
12:45 1008 29.77 837 24.72 1.3 34.3 53 -7.4 18.7
12:50 1008 29.77 837 24.72 1.5 34.6 52 -7.4 18.7
12:55 1008 29.77 837 24.72 1.6 34.9 53 -6.9 19.5
13:00 1008 29.77 837 24.72 1.4 34.5 54 -6.8 19.7
13:05 1008 29.77 837 24.72 1.6 35 52 -7.2 19.1
13:10 1008 29.77 837 24.72 1.9 35.4 50 -7.5 18.4
13:15 1008 29.77 837 24.72 1.8 35.3 50 -7.6 18.3
13:20 1008 29.77 837 24.72 1.8 35.3 50 -7.5 18.5
13:25 1008 29.77 837 24.72 1.7 35 58 -5.8 21.5
13:30 1008 29.77 837 24.72 0.7 33.2 76 -3 26.6
13:35 1008 29.77 837 24.72 -0.3 31.4 87 -2.2 28
13:40 1008 29.77 837 24.72 -1 30.2 90 -2.5 27.5
13:45 1008 29.77 838 24.75 -1.3 29.6 91 -2.6 27.3
13:50 1008 29.77 838 24.75 -1.3 29.7 89 -3 26.7
13:55 1008 29.77 837 24.72 -1.2 29.8 87 -3.2 26.3
14:00 1008 29.77 838 24.75 -1 30.2 88 -2.7 27.1
14:05 1008 29.77 838 24.75 -0.8 30.5 86 -2.9 26.9
14:10 1008 29.77 838 24.75 -0.7 30.7 85 -2.9 26.8
14:15 1008 29.77 838 24.75 -0.7 30.8 83 -3.2 26.2
14:20 1008 29.77 838 24.75 -0.6 30.9 84 -3.1 26.5
14:25 1008 29.77 838 24.75 -0.5 31.1 83 -3 26.5
14:30 1008 29.77 838 24.75 -0.5 31.1 80 -3.5 25.7
14:35 1008 29.77 838 24.75 -0.3 31.5 80 -3.2 26.2
14:40 1008 29.77 838 24.75 -0.1 31.8 79 -3.3 26
14:45 1008 29.77 838 24.75 -0.2 31.6 79 -3.4 25.8
14:50 1009 29.8 838 24.75 -0.2 31.7 81 -3.1 26.4
14:55 1009 29.8 838 24.75 -0.3 31.4 84 -2.8 27
15:00 1008 29.77 838 24.75 -0.4 31.2 81 -3.2 26.2
15:05 1008 29.77 838 24.75 -0.2 31.7 79 -3.4 26
15:10 1008 29.77 838 24.75 -0.1 31.8 76 -3.9 25
15:15 1008 29.77 838 24.75 0 32 75 -3.8 25.1
15:20 1008 29.77 838 24.75 -0 31.9 75 -3.9 25
15:25 1008 29.77 838 24.75 -0 32 74 -4.1 24.7
15:30 1008 29.77 838 24.75 -0.1 31.8 75 -4 24.8
15:35 1009 29.8 838 24.75 -0.2 31.7 76 -3.8 25.1
15:40 1009 29.8 838 24.75 -0.3 31.5 76 -3.9 24.9
15:45 1009 29.8 838 24.75 -0.4 31.4 79 -3.5 25.6
15:50 1009 29.8 838 24.75 -0.4 31.3 80 -3.4 26
15:55 1009 29.8 838 24.75 -0.5 31.1 82 -3.1 26.3
16:00 1009 29.8 838 24.75 -0.5 31.1 82 -3.2 26.2
16:05 1009 29.8 838 24.75 -0.4 31.2 81 -3.2 26.2
16:10 1009 29.8 838 24.75 -0.5 31.2 80 -3.5 25.7
16:15 1009 29.8 838 24.75 -0.5 31.1 82 -3.2 26.2
16:20 1009 29.8 838 24.75 -0.5 31.1 81 -3.4 25.9
16:25 1009 29.8 838 24.75 -0.4 31.2 81 -3.4 25.9
16:30 1009 29.8 838 24.75 -0.5 31.1 81 -3.4 25.8
16:35 1009 29.8 838 24.75 -0.6 31 81 -3.4 25.8
16:40 1009 29.8 839 24.78 -0.8 30.6 83 -3.3 26
16:45 1009 29.8 839 24.78 -1 30.3 85 -3.2 26.3
16:50 1009 29.8 839 24.78 -0.9 30.4 85 -3 26.5
16:55 1009 29.8 839 24.78 -1.1 30.1 87 -3 26.5
17:00 1009 29.8 839 24.78 -1.1 30.1 88 -2.9 26.9
17:05 1010 29.83 839 24.78 -1.2 29.9 88 -2.9 26.7
17:10 1010 29.83 839 24.78 -1.2 29.8 89 -2.8 27
17:15 1010 29.83 839 24.78 -1.3 29.6 88 -3.1 26.5
17:20 1010 29.83 839 24.78 -1.4 29.5 90 -2.8 27
17:25 1010 29.83 839 24.78 -1.4 29.4 90 -2.8 26.9
17:30 1010 29.83 839 24.78 -1.5 29.4 91 -2.8 27
17:35 1010 29.83 839 24.78 -1.5 29.3 91 -2.9 26.8
17:40 1010 29.83 839 24.78 -1.5 29.3 89 -3.1 26.4
17:45 1010 29.83 839 24.78 -1.4 29.4 89 -3 26.6
17:50 1010 29.83 839 24.78 -1.4 29.5 89 -3 26.6
17:55 1010 29.83 839 24.78 -1.4 29.4 88 -3.2 26.3
18:00 1010 29.83 839 24.78 -1.3 29.7 87 -3.2 26.2
18:05 1010 29.83 839 24.78 -1.3 29.7 87 -3.1 26.4
18:10 1010 29.83 839 24.78 -1.2 29.8 87 -3.2 26.3
18:15 1010 29.83 839 24.78 -1.3 29.6 87 -3.1 26.3
18:20 1010 29.83 840 24.81 -1.4 29.5 87 -3.3 26.1
18:25 1010 29.83 840 24.81 -1.3 29.6 87 -3.2 26.3
18:30 1010 29.83 840 24.81 -1.2 29.8 88 -2.9 26.7
18:35 1010 29.83 840 24.81 -1.4 29.4 89 -3 26.7
18:40 1011 29.85 840 24.81 -1.5 29.3 91 -2.8 27
18:45 1011 29.85 840 24.81 -1.5 29.4 92 -2.5 27.4
18:50 1011 29.85 840 24.81 -1.4 29.5 92 -2.6 27.4
18:55 1011 29.85 840 24.81 -1.2 29.8 91 -2.5 27.5
19:00 1011 29.85 840 24.81 -1.2 29.9 92 -2.2 28
19:05 1011 29.85 840 24.81 -1.2 29.9 93 -2.1 28.2
19:10 1011 29.85 840 24.81 -1.3 29.6 93 -2.2 28
19:15 1011 29.85 840 24.81 -1.4 29.4 94 -2.3 27.8
19:20 1011 29.85 840 24.81 -1.6 29.1 95 -2.4 27.7
19:25 1011 29.85 840 24.81 -1.7 29 95 -2.4 27.7
19:30 1011 29.85 840 24.81 -1.6 29 95 -2.3 27.8
19:35 1011 29.85 840 24.81 -1.6 29.1 95 -2.4 27.8
19:40 1011 29.85 840 24.81 -1.7 29 95 -2.4 27.6
19:45 1011 29.85 840 24.81 -1.7 28.9 95 -2.4 27.7
19:50 1011 29.85 841 24.83 -1.7 28.9 95 -2.4 27.8
19:55 1011 29.85 841 24.83 -1.7 29 95 -2.3 27.8
20:00 1011 29.85 841 24.83 -1.7 29 95 -2.3 27.8
20:05 1011 29.85 841 24.83 -1.8 28.8 95 -2.4 27.7
20:10 1011 29.85 841 24.83 -1.8 28.8 96 -2.4 27.7
20:15 1011 29.85 841 24.83 -1.8 28.8 96 -2.3 27.8
20:20 1011 29.85 841 24.83 -1.8 28.7 96 -2.4 27.7
20:25 1012 29.88 841 24.83 -1.9 28.6 96 -2.4 27.7
20:30 1012 29.88 841 24.83 -1.9 28.5 96 -2.5 27.6
20:35 1012 29.88 841 24.83 -2 28.4 97 -2.5 27.6
20:40 1012 29.88 841 24.83 -2 28.4 97 -2.4 27.6
20:45 1012 29.88 841 24.83 -2.1 28.3 97 -2.5 27.5
20:50 1012 29.88 841 24.83 -2.1 28.3 97 -2.5 27.5
20:55 1012 29.88 841 24.83 -2.1 28.2 97 -2.5 27.5
21:00 1012 29.88 841 24.83 -2.1 28.2 97 -2.5 27.4
21:05 1012 29.88 841 24.83 -2.1 28.2 97 -2.6 27.4
21:10 1012 29.88 841 24.83 -2.2 28.1 97 -2.6 27.3
21:15 1012 29.88 841 24.83 -2.2 28 97 -2.6 27.3
21:20 1012 29.88 841 24.83 -2.3 27.9 97 -2.7 27.2
21:25 1012 29.88 841 24.83 -2.3 27.8 97 -2.7 27.2
21:30 1012 29.88 841 24.83 -2.3 27.9 97 -2.7 27.2
21:35 1012 29.88 841 24.83 -2.3 27.8 97 -2.7 27.1
21:40 1012 29.88 841 24.83 -2.4 27.8 98 -2.7 27.1
21:45 1012 29.88 841 24.83 -2.4 27.8 98 -2.7 27.1
21:50 1012 29.88 841 24.83 -2.3 27.8 98 -2.7 27.2
21:55 1012 29.88 841 24.83 -2.4 27.8 98 -2.7 27.2
22:00 1012 29.88 841 24.83 -2.3 27.8 98 -2.7 27.2
22:05 1012 29.88 841 24.83 -2.4 27.8 97 -2.7 27.1
22:10 1012 29.88 841 24.83 -2.4 27.7 97 -2.8 27
22:15 1012 29.88 841 24.83 -2.4 27.7 97 -2.8 27
22:20 1012 29.88 841 24.83 -2.4 27.6 97 -2.8 26.9
22:25 1012 29.88 841 24.83 -2.4 27.7 97 -2.8 26.9
22:30 1012 29.88 841 24.83 -2.4 27.7 97 -2.8 27
22:35 1012 29.88 841 24.83 -2.4 27.7 97 -2.8 27
22:40 1012 29.88 841 24.83 -2.4 27.7 97 -2.8 26.9
22:45 1012 29.88 842 24.86 -2.4 27.6 97 -2.8 26.9
22:50 1012 29.88 842 24.86 -2.4 27.7 97 -2.8 26.9
22:55 1012 29.88 842 24.86 -2.4 27.7 97 -2.8 26.9
23:00 1012 29.88 842 24.86 -2.4 27.7 96 -2.9 26.8
23:05 1012 29.88 842 24.86 -2.4 27.7 96 -2.9 26.8
23:10 1013 29.91 842 24.86 -2.3 27.8 96 -2.9 26.9
23:15 1012 29.88 842 24.86 -2.3 27.9 96 -2.9 26.9
23:20 1013 29.91 842 24.86 -2.3 27.9 96 -2.9 26.8
23:25 1013 29.91 842 24.86 -2.2 28 95 -2.8 26.9
23:30 1013 29.91 842 24.86 -2.2 28.1 95 -2.8 26.9
23:35 1013 29.91 842 24.86 -2.2 28.1 95 -2.9 26.7
23:40 1013 29.91 842 24.86 -2.1 28.2 94 -2.9 26.7
23:45 1013 29.91 842 24.86 -2.1 28.2 93 -3 26.5
23:50 1013 29.91 842 24.86 -2.1 28.2 93 -3.1 26.5
23:55 1013 29.91 842 24.86 -2.1 28.2 93 -3.1 26.4
24:00 1013 29.91 842 24.86 -2.1 28.2 92 -3.2 26.3